createdAt,value
2023-04-15T00:01:10.175Z,3.55
2023-04-15T00:03:36.939Z,3.90
2023-04-15T00:06:03.879Z,4.00
2023-04-15T00:08:35.353Z,3.65
2023-04-15T00:11:06.796Z,3.70
2023-04-15T00:13:36.053Z,3.10
2023-04-15T00:16:02.696Z,3.08
2023-04-15T00:18:35.004Z,3.80
2023-04-15T00:21:04.570Z,3.67
2023-04-15T00:23:31.796Z,3.35
2023-04-15T00:25:58.358Z,2.97
2023-04-15T00:28:25.028Z,3.03
2023-04-15T00:30:56.593Z,2.78
2023-04-15T00:33:23.160Z,4.15
2023-04-15T00:35:53.685Z,3.90
2023-04-15T00:38:23.237Z,3.35
2023-04-15T00:40:50.206Z,2.63
2023-04-15T00:43:19.024Z,2.58
2023-04-15T00:45:48.058Z,2.90
2023-04-15T00:48:15.588Z,2.70
2023-04-15T00:50:42.134Z,2.97
2023-04-15T00:53:10.881Z,2.72
2023-04-15T00:55:40.092Z,2.92
2023-04-15T00:58:08.928Z,2.63
2023-04-15T01:00:36.005Z,2.80
2023-04-15T01:03:04.992Z,2.65
2023-04-15T01:05:37.051Z,3.28
2023-04-15T01:08:05.742Z,3.28
2023-04-15T01:10:34.622Z,2.65
2023-04-15T01:13:01.149Z,3.88
2023-04-15T01:15:29.755Z,3.58
2023-04-15T01:17:58.587Z,3.03
2023-04-15T01:20:25.258Z,3.95
2023-04-15T01:22:55.089Z,3.72
2023-04-15T01:25:34.816Z,3.53
2023-04-15T01:28:04.922Z,3.95
2023-04-15T01:30:35.048Z,4.10
2023-04-15T01:33:01.870Z,4.18
2023-04-15T01:35:31.028Z,3.72
2023-04-15T01:38:11.442Z,4.13
2023-04-15T01:40:40.966Z,3.72
2023-04-15T01:43:09.790Z,4.22
2023-04-15T01:45:36.367Z,3.33
2023-04-15T01:48:05.234Z,3.55
2023-04-15T01:50:32.212Z,4.25
2023-04-15T01:53:01.192Z,3.35
2023-04-15T01:55:30.457Z,3.30
2023-04-15T02:00:26.676Z,2.85
2023-04-15T02:02:53.262Z,2.97
2023-04-15T02:05:22.336Z,3.90
2023-04-15T02:07:52.378Z,3.67
2023-04-15T02:10:18.979Z,3.95
2023-04-15T02:12:45.859Z,3.45
2023-04-15T02:15:12.409Z,3.33
2023-04-15T02:17:41.755Z,3.40
2023-04-15T02:20:09.104Z,2.88
2023-04-15T02:22:35.778Z,3.95
2023-04-15T02:25:02.487Z,3.30
2023-04-15T02:27:29.082Z,3.45
2023-04-15T02:30:00.579Z,3.90
2023-04-15T02:32:27.194Z,3.67
2023-04-15T02:34:58.295Z,3.55
2023-04-15T02:37:27.240Z,3.30
2023-04-15T02:39:53.759Z,3.33
2023-04-15T02:42:21.690Z,3.72
2023-04-15T02:44:48.365Z,3.78
2023-04-15T02:47:16.044Z,4.07
2023-04-15T02:49:42.640Z,4.10
2023-04-15T02:52:10.041Z,4.00
2023-04-15T02:54:39.093Z,4.03
2023-04-15T02:57:06.890Z,3.85
2023-04-15T02:59:35.871Z,4.38
2023-04-15T03:02:02.705Z,4.20
2023-04-15T03:04:34.121Z,3.95
2023-04-15T03:07:01.918Z,3.50
2023-04-15T03:09:28.522Z,3.40
2023-04-15T03:11:59.866Z,3.95
2023-04-15T03:14:28.787Z,3.53
2023-04-15T03:17:00.050Z,3.30
2023-04-15T03:19:26.625Z,3.20
2023-04-15T03:21:55.432Z,3.85
2023-04-15T03:24:22.059Z,3.90
2023-04-15T03:26:51.499Z,3.75
2023-04-15T03:29:23.312Z,4.35
2023-04-15T03:31:50.037Z,3.97
2023-04-15T03:34:18.843Z,3.72
2023-04-15T03:36:46.853Z,3.65
2023-04-15T03:39:13.643Z,3.90
2023-04-15T03:41:40.542Z,3.30
2023-04-15T03:44:11.951Z,3.88
2023-04-15T03:46:38.613Z,4.25
2023-04-15T03:49:07.718Z,3.15
2023-04-15T03:51:34.302Z,3.35
2023-04-15T03:54:03.296Z,3.13
2023-04-15T03:56:32.095Z,4.65
2023-04-15T03:59:01.457Z,3.53
2023-04-15T04:01:28.253Z,3.67
2023-04-15T04:03:55.046Z,3.15
2023-04-15T04:06:21.821Z,3.25
2023-04-15T04:08:48.352Z,3.40
2023-04-15T04:11:14.913Z,3.60
2023-04-15T04:13:41.522Z,3.30
2023-04-15T04:16:10.978Z,2.90
2023-04-15T04:18:37.604Z,3.50
2023-04-15T04:21:04.230Z,3.80
2023-04-15T04:23:33.272Z,3.55
2023-04-15T04:25:59.896Z,4.25
2023-04-15T04:28:30.776Z,3.88
2023-04-15T04:30:59.654Z,3.50
2023-04-15T04:33:28.682Z,3.40
2023-04-15T04:35:55.243Z,3.83
2023-04-15T04:38:24.139Z,3.80
2023-04-15T04:40:50.750Z,3.47
2023-04-15T04:43:17.447Z,3.47
2023-04-15T04:45:49.340Z,3.83
2023-04-15T04:48:18.936Z,3.40
2023-04-15T04:50:48.165Z,3.85
2023-04-15T04:55:41.546Z,3.47
2023-04-15T04:58:10.697Z,3.20
2023-04-15T05:05:35.543Z,3.75
2023-04-15T05:08:02.242Z,2.90
2023-04-15T05:10:31.817Z,3.30
2023-04-15T05:13:00.980Z,3.80
2023-04-15T05:15:27.544Z,3.33
2023-04-15T05:17:56.422Z,3.28
2023-04-15T05:20:27.612Z,3.40
2023-04-15T05:22:54.189Z,3.42
2023-04-15T05:25:21.254Z,3.50
2023-04-15T05:27:51.439Z,3.72
2023-04-15T05:30:18.068Z,3.60
2023-04-15T05:32:44.582Z,3.45
2023-04-15T05:35:11.128Z,4.00
2023-04-15T05:37:37.698Z,3.78
2023-04-15T05:40:06.593Z,4.30
2023-04-15T05:42:38.198Z,4.35
2023-04-15T05:45:09.357Z,4.25
2023-04-15T05:47:40.570Z,3.63
2023-04-15T05:50:07.428Z,3.85
2023-04-15T05:52:34.029Z,4.10
2023-04-15T05:55:05.500Z,4.00
2023-04-15T05:57:32.120Z,3.63
2023-04-15T06:00:01.793Z,4.00
2023-04-15T06:02:31.612Z,6.75
2023-04-15T06:05:01.069Z,4.88
2023-04-15T06:07:27.842Z,4.60
2023-04-15T06:09:58.951Z,4.50
2023-04-15T06:12:25.497Z,4.38
2023-04-15T06:14:52.086Z,4.03
2023-04-15T06:17:19.342Z,3.58
2023-04-15T06:19:50.379Z,3.42
2023-04-15T06:22:22.269Z,4.00
2023-04-15T06:24:51.564Z,3.88
2023-04-15T06:27:18.143Z,3.72
2023-04-15T06:29:47.701Z,3.83
2023-04-15T06:32:14.293Z,3.20
2023-04-15T06:34:43.051Z,3.63
2023-04-15T06:37:16.262Z,3.15
2023-04-15T06:39:43.638Z,4.10
2023-04-15T06:42:15.211Z,4.45
2023-04-15T06:44:44.484Z,3.92
2023-04-15T06:47:14.728Z,3.42
2023-04-15T06:49:41.537Z,2.88
2023-04-15T06:52:08.234Z,2.90
2023-04-15T06:54:36.988Z,3.58
2023-04-15T06:57:03.704Z,3.38
2023-04-15T06:59:35.456Z,3.10
2023-04-15T07:02:03.761Z,2.70
2023-04-15T07:04:32.983Z,2.50
2023-04-15T07:07:04.433Z,2.83
2023-04-15T07:09:31.314Z,2.67
2023-04-15T07:11:57.977Z,2.47
2023-04-15T07:14:27.877Z,2.90
2023-04-15T07:16:54.581Z,2.63
2023-04-15T07:19:21.853Z,3.00
2023-04-15T07:21:50.636Z,2.90
2023-04-15T07:24:19.019Z,2.45
2023-04-15T07:26:46.049Z,2.70
2023-04-15T07:29:12.602Z,3.03
2023-04-15T07:31:46.524Z,2.63
2023-04-15T07:34:17.937Z,3.45
2023-04-15T07:36:44.514Z,2.53
2023-04-15T07:39:21.810Z,2.60
2023-04-15T07:41:49.335Z,2.00
2023-04-15T07:44:16.762Z,2.00
2023-04-15T07:46:43.392Z,2.03
2023-04-15T07:49:13.444Z,1.95
2023-04-15T07:51:40.061Z,1.80
2023-04-15T07:54:06.576Z,1.50
2023-04-15T07:56:33.145Z,1.85
2023-04-15T07:59:02.364Z,1.42
2023-04-15T08:01:29.288Z,1.38
2023-04-15T08:03:59.594Z,1.88
2023-04-15T08:06:26.230Z,1.55
2023-04-15T08:08:57.847Z,1.40
2023-04-15T08:11:24.931Z,1.25
2023-04-15T08:13:52.529Z,1.02
2023-04-15T08:16:24.665Z,1.25
2023-04-15T08:18:53.225Z,1.20
2023-04-15T08:21:22.882Z,1.17
2023-04-15T08:23:53.443Z,1.50
2023-04-15T08:26:21.329Z,1.40
2023-04-15T08:28:51.690Z,1.30
2023-04-15T08:31:21.973Z,1.30
2023-04-15T08:33:52.539Z,1.20
2023-04-15T08:36:21.561Z,1.20
2023-04-15T08:38:48.164Z,2.03
2023-04-15T08:41:23.657Z,1.45
2023-04-15T08:43:59.211Z,1.77
2023-04-15T08:46:29.255Z,1.90
2023-04-15T08:48:59.267Z,1.77
2023-04-15T08:51:31.133Z,1.88
2023-04-15T08:53:57.826Z,1.60
2023-04-15T08:56:33.013Z,1.88
2023-04-15T08:59:02.915Z,1.80
2023-04-15T09:01:30.053Z,1.92
2023-04-15T09:03:57.243Z,1.70
2023-04-15T09:06:25.084Z,2.10
2023-04-15T09:08:54.803Z,1.98
2023-04-15T09:11:22.391Z,2.00
2023-04-15T09:13:52.308Z,2.20
2023-04-15T09:16:19.020Z,2.60
2023-04-15T09:18:45.722Z,2.42
2023-04-15T09:21:17.679Z,2.40
2023-04-15T09:24:02.508Z,2.90
2023-04-15T09:26:40.238Z,2.75
2023-04-15T09:29:13.511Z,2.25
2023-04-15T09:31:41.144Z,2.08
2023-04-15T09:34:10.339Z,2.38
2023-04-15T09:36:56.986Z,2.42
2023-04-15T09:39:23.577Z,2.40
2023-04-15T09:42:09.095Z,2.75
2023-04-15T09:44:35.885Z,2.17
2023-04-15T09:47:02.500Z,2.30
2023-04-15T09:49:29.272Z,1.77
2023-04-15T09:52:06.056Z,2.00
2023-04-15T09:54:36.789Z,1.50
2023-04-15T09:57:15.826Z,1.35
2023-04-15T09:59:42.389Z,1.30
2023-04-15T10:02:12.881Z,1.08
2023-04-15T10:04:41.654Z,0.80
2023-04-15T10:07:12.779Z,1.05
2023-04-15T10:09:40.203Z,0.82
2023-04-15T10:12:09.211Z,0.55
2023-04-15T10:14:41.530Z,0.60
2023-04-15T10:17:11.751Z,0.50
2023-04-15T10:19:38.639Z,0.80
2023-04-15T10:22:08.153Z,0.70
2023-04-15T10:24:38.970Z,0.60
2023-04-15T10:27:06.444Z,0.43
2023-04-15T10:29:33.802Z,0.60
2023-04-15T10:32:01.759Z,0.50
2023-04-15T10:34:29.995Z,0.55
2023-04-15T10:36:58.379Z,0.35
2023-04-15T10:39:48.632Z,0.40
2023-04-15T10:42:20.539Z,0.77
2023-04-15T10:44:54.213Z,0.60
2023-04-15T10:47:22.053Z,1.00
2023-04-15T10:49:51.640Z,0.70
2023-04-15T10:52:23.621Z,1.17
2023-04-15T10:55:04.068Z,1.00
2023-04-15T10:57:45.570Z,1.05
2023-04-15T11:00:15.527Z,0.90
2023-04-15T11:02:48.149Z,0.70
2023-04-15T11:05:19.496Z,0.60
2023-04-15T11:08:01.212Z,0.68
2023-04-15T11:10:31.186Z,0.77
2023-04-15T11:13:13.727Z,0.47
2023-04-15T11:15:48.544Z,0.57
2023-04-15T11:18:15.044Z,0.80
2023-04-15T11:21:04.755Z,0.60
2023-04-15T11:23:47.945Z,0.52
2023-04-15T11:26:15.497Z,0.70
2023-04-15T11:28:46.093Z,0.73
2023-04-15T11:31:14.613Z,0.60
2023-04-15T11:34:04.965Z,0.80
2023-04-15T11:36:34.505Z,0.70
2023-04-15T11:39:07.395Z,0.45
2023-04-15T11:41:38.218Z,0.63
2023-04-15T11:44:18.859Z,0.60
2023-04-15T11:46:47.734Z,0.60
2023-04-15T11:49:27.641Z,0.70
2023-04-15T11:51:54.257Z,0.63
2023-04-15T11:54:26.119Z,0.70
2023-04-15T11:56:53.687Z,0.60
2023-04-15T11:59:20.493Z,0.50
2023-04-15T12:01:49.978Z,0.70
2023-04-15T12:04:23.222Z,0.43
2023-04-15T12:06:51.846Z,0.60
2023-04-15T12:09:20.949Z,0.40
2023-04-15T12:14:25.753Z,0.50
2023-04-15T12:16:58.210Z,0.50
2023-04-15T12:19:30.652Z,0.60
2023-04-15T12:22:02.552Z,0.68
2023-04-15T12:24:35.617Z,0.73
2023-04-15T12:27:06.954Z,0.75
2023-04-15T12:29:38.736Z,0.90
2023-04-15T12:32:10.426Z,0.68
2023-04-15T12:34:41.904Z,0.63
2023-04-15T12:37:10.731Z,1.10
2023-04-15T12:39:45.308Z,0.68
2023-04-15T12:42:14.949Z,0.75
2023-04-15T12:44:44.204Z,0.63
2023-04-15T12:47:15.814Z,0.73
2023-04-15T12:49:42.406Z,0.60
2023-04-15T12:52:13.677Z,0.68
2023-04-15T12:54:40.846Z,0.57
2023-04-15T12:57:10.817Z,0.80
2023-04-15T13:02:24.607Z,1.00
2023-04-15T13:04:58.467Z,0.80
2023-04-15T13:07:49.906Z,0.73
2023-04-15T13:10:36.704Z,0.80
2023-04-15T13:13:03.584Z,0.50
2023-04-15T13:18:45.582Z,0.70
2023-04-15T13:24:44.760Z,0.63
2023-04-15T13:27:11.669Z,0.70
2023-04-15T13:29:38.759Z,0.70
2023-04-15T13:32:06.036Z,1.20
2023-04-15T13:34:32.642Z,0.70
2023-04-15T13:37:06.080Z,0.82
2023-04-15T13:39:32.593Z,0.60
2023-04-15T13:41:59.337Z,0.90
2023-04-15T13:44:25.938Z,0.98
2023-04-15T13:46:52.899Z,0.75
2023-04-15T13:49:19.539Z,0.85
2023-04-15T13:51:50.856Z,1.10
2023-04-15T13:54:17.501Z,0.60
2023-04-15T13:56:46.445Z,0.80
2023-04-15T13:59:13.183Z,1.02
2023-04-15T14:01:42.020Z,1.00
2023-04-15T14:04:11.125Z,1.00
2023-04-15T14:06:40.531Z,1.20
2023-04-15T14:11:36.704Z,0.80
2023-04-15T14:14:03.513Z,0.70
2023-04-15T14:16:30.275Z,0.80
2023-04-15T14:18:58.086Z,0.88
2023-04-15T14:21:24.765Z,0.85
2023-04-15T14:23:53.655Z,1.00
2023-04-15T14:26:20.392Z,1.00
2023-04-15T14:28:48.454Z,0.77
2023-04-15T14:31:17.700Z,0.93
2023-04-15T14:33:44.314Z,0.90
2023-04-15T14:36:13.399Z,0.95
2023-04-15T14:41:08.147Z,0.70
2023-04-15T14:43:37.316Z,1.35
2023-04-15T14:46:04.094Z,1.70
2023-04-15T14:48:31.881Z,1.70
2023-04-15T14:50:59.224Z,2.22
2023-04-15T14:53:25.982Z,1.73
2023-04-15T14:55:52.594Z,1.60
2023-04-15T14:58:19.170Z,1.83
2023-04-15T15:00:46.094Z,1.77
2023-04-15T15:03:15.799Z,1.90
2023-04-15T15:05:44.821Z,1.83
2023-04-15T15:08:12.170Z,2.33
2023-04-15T15:10:49.504Z,1.00
2023-04-15T15:13:17.452Z,1.98
2023-04-15T15:15:46.422Z,1.02
2023-04-15T15:18:13.146Z,1.20
2023-04-15T15:20:39.879Z,0.80
2023-04-15T15:23:06.510Z,1.30
2023-04-15T15:25:33.088Z,1.40
2023-04-15T15:28:01.880Z,1.30
2023-04-15T15:30:39.868Z,1.10
2023-04-15T15:33:55.949Z,0.70
2023-04-15T15:36:24.997Z,1.30
2023-04-15T15:41:21.266Z,1.60
2023-04-15T15:43:58.767Z,1.48
2023-04-15T15:46:31.752Z,1.00
2023-04-15T15:49:19.704Z,3.30
2023-04-15T15:51:46.907Z,4.43
2023-04-15T15:54:13.995Z,9.10
2023-04-15T15:56:45.263Z,7.55
2023-04-15T15:59:11.804Z,5.95
2023-04-15T16:01:44.519Z,2.20
2023-04-15T16:04:22.504Z,3.17
2023-04-15T16:09:31.790Z,3.17
2023-04-15T16:12:02.849Z,3.35
2023-04-15T16:14:29.860Z,3.55
2023-04-15T16:17:02.517Z,3.05
2023-04-15T16:19:55.605Z,2.90
2023-04-15T16:22:30.545Z,1.98
2023-04-15T16:24:57.117Z,2.38
2023-04-15T16:27:23.718Z,2.95
2023-04-15T16:29:52.552Z,2.13
2023-04-15T16:32:19.505Z,5.93
2023-04-15T16:34:48.417Z,2.65
2023-04-15T16:37:17.193Z,2.33
2023-04-15T16:39:46.106Z,2.55
2023-04-15T16:42:12.711Z,3.03
2023-04-15T16:44:39.275Z,2.20
2023-04-15T16:47:05.946Z,4.40
2023-04-15T16:49:35.596Z,2.28
2023-04-15T16:52:04.716Z,2.25
2023-04-15T16:56:59.311Z,4.70
2023-04-15T16:59:30.717Z,2.97
2023-04-15T17:01:57.468Z,2.20
2023-04-15T17:04:27.405Z,2.40
2023-04-15T17:06:56.436Z,1.83
2023-04-15T17:09:22.998Z,2.10
2023-04-15T17:11:54.579Z,2.22
2023-04-15T17:14:23.667Z,1.60
2023-04-15T17:16:52.498Z,1.92
2023-04-15T17:19:23.588Z,1.75
2023-04-15T17:21:54.264Z,1.80
2023-04-15T17:24:21.496Z,1.98
2023-04-15T17:26:48.037Z,1.70
2023-04-15T17:29:14.645Z,1.80
2023-04-15T17:31:43.537Z,1.98
2023-04-15T17:34:11.643Z,2.00
2023-04-15T17:39:06.203Z,3.28
2023-04-15T17:41:35.403Z,2.90
2023-04-15T17:44:04.532Z,2.33
2023-04-15T17:46:32.010Z,2.40
2023-04-15T17:48:58.583Z,2.08
2023-04-15T17:51:28.431Z,2.33
2023-04-15T17:53:55.114Z,2.50
2023-04-15T17:56:22.399Z,2.72
2023-04-15T17:58:48.962Z,2.10
2023-04-15T18:01:15.507Z,2.42
2023-04-15T18:03:47.229Z,3.22
2023-04-15T18:06:16.905Z,4.55
2023-04-15T18:08:45.942Z,5.45
2023-04-15T18:11:16.066Z,5.20
2023-04-15T18:13:43.707Z,5.35
2023-04-15T18:16:13.268Z,4.35
2023-04-15T18:18:44.321Z,4.32
2023-04-15T18:21:13.430Z,3.67
2023-04-15T18:23:40.396Z,3.40
2023-04-15T18:26:23.978Z,3.88
2023-04-15T18:28:54.878Z,5.57
2023-04-15T18:31:37.496Z,6.10
2023-04-15T18:34:06.646Z,5.55
2023-04-15T18:36:33.495Z,4.38
2023-04-15T18:39:00.107Z,3.58
2023-04-15T18:41:29.763Z,3.40
2023-04-15T18:44:43.600Z,2.72
2023-04-15T18:47:01.469Z,3.20
2023-04-15T18:49:35.263Z,3.65
2023-04-15T18:52:10.929Z,3.38
2023-04-15T18:54:40.858Z,2.75
2023-04-15T18:57:10.674Z,3.33
2023-04-15T18:59:47.982Z,2.97
2023-04-15T19:02:14.577Z,2.50
2023-04-15T19:04:49.936Z,2.38
2023-04-15T19:09:45.735Z,1.95
2023-04-15T19:12:19.521Z,2.08
2023-04-15T19:14:48.591Z,2.70
2023-04-15T19:17:17.561Z,2.33
2023-04-15T19:19:54.911Z,3.13
2023-04-15T19:22:29.517Z,3.25
2023-04-15T19:25:03.430Z,3.08
2023-04-15T19:27:59.987Z,2.40
2023-04-15T19:30:36.923Z,2.25
2023-04-15T19:33:31.245Z,2.30
2023-04-15T19:36:02.286Z,2.17
2023-04-15T19:38:29.126Z,2.22
2023-04-15T19:40:58.074Z,2.13
2023-04-15T19:43:27.726Z,2.17
2023-04-15T19:45:58.988Z,2.78
2023-04-15T19:48:28.130Z,2.17
2023-04-15T19:50:57.186Z,1.98
2023-04-15T19:53:25.651Z,2.70
2023-04-15T19:55:57.241Z,3.20
2023-04-15T19:58:26.136Z,3.22
2023-04-15T20:00:52.681Z,2.90
2023-04-15T20:03:19.692Z,2.67
2023-04-15T20:05:46.695Z,2.17
2023-04-15T20:08:13.306Z,2.22
2023-04-15T20:10:39.848Z,2.30
2023-04-15T20:13:06.585Z,1.90
2023-04-15T20:15:33.218Z,1.95
2023-04-15T20:17:59.822Z,1.80
2023-04-15T20:20:26.688Z,1.80
2023-04-15T20:22:53.284Z,1.95
2023-04-15T20:25:19.914Z,2.03
2023-04-15T20:27:48.711Z,1.95
2023-04-15T20:30:15.641Z,2.30
2023-04-15T20:32:44.669Z,1.60
2023-04-15T20:35:11.340Z,2.13
2023-04-15T20:37:38.291Z,1.25
2023-04-15T20:40:05.362Z,1.55
2023-04-15T20:42:34.760Z,1.67
2023-04-15T20:45:03.921Z,1.38
2023-04-15T20:49:57.245Z,1.20
2023-04-15T20:52:23.924Z,1.00
2023-04-15T20:54:51.257Z,1.00
2023-04-15T20:57:18.332Z,1.25
2023-04-15T20:59:44.912Z,1.17
2023-04-15T21:02:11.738Z,1.40
2023-04-15T21:04:38.860Z,1.38
2023-04-15T21:07:05.650Z,1.50
2023-04-15T21:09:34.476Z,1.27
2023-04-15T21:12:08.328Z,1.77
2023-04-15T21:14:42.295Z,1.73
2023-04-15T21:17:11.168Z,1.50
2023-04-15T21:22:04.928Z,1.25
2023-04-15T21:24:31.517Z,1.60
2023-04-15T21:27:02.032Z,1.40
2023-04-15T21:29:28.921Z,1.60
2023-04-15T21:31:55.805Z,1.52
2023-04-15T21:34:22.433Z,1.60
2023-04-15T21:36:49.139Z,2.08
2023-04-15T21:39:16.077Z,2.22
2023-04-15T21:41:42.716Z,1.85
2023-04-15T21:44:09.312Z,2.20
2023-04-15T21:46:38.289Z,2.05
2023-04-15T21:49:07.053Z,1.90
2023-04-15T21:51:33.866Z,2.45
2023-04-15T21:54:00.479Z,5.93
2023-04-15T21:56:27.054Z,2.67
2023-04-15T21:58:56.933Z,1.98
2023-04-15T22:01:24.492Z,2.10
2023-04-15T22:03:51.514Z,2.00
2023-04-15T22:06:23.661Z,1.80
2023-04-15T22:08:57.095Z,1.45
2023-04-15T22:11:27.634Z,1.20
2023-04-15T22:13:58.552Z,1.92
2023-04-15T22:16:26.624Z,1.67
2023-04-15T22:18:58.247Z,1.92
2023-04-15T22:21:24.782Z,1.50
2023-04-15T22:23:51.739Z,2.03
2023-04-15T22:26:18.431Z,1.95
2023-04-15T22:28:45.311Z,1.85
2023-04-15T22:31:14.977Z,1.70
2023-04-15T22:33:41.626Z,1.38
2023-04-15T22:36:08.146Z,1.65
2023-04-15T22:38:37.000Z,1.58
2023-04-15T22:41:08.325Z,1.30
2023-04-15T22:43:34.926Z,1.70
2023-04-15T22:46:01.753Z,1.48
2023-04-15T22:48:30.669Z,1.60
2023-04-15T22:50:59.546Z,1.42
2023-04-15T22:53:26.413Z,1.88
2023-04-15T22:55:56.010Z,1.90
2023-04-15T22:58:22.677Z,1.75
2023-04-15T23:00:51.517Z,1.98
2023-04-15T23:03:20.352Z,1.63
2023-04-15T23:05:47.451Z,1.88
2023-04-15T23:08:14.084Z,1.90
2023-04-15T23:10:44.663Z,2.40
2023-04-15T23:13:11.258Z,2.30
2023-04-15T23:15:37.818Z,2.60
2023-04-15T23:18:04.390Z,2.55
2023-04-15T23:20:30.994Z,3.35
2023-04-15T23:22:57.599Z,3.42
2023-04-15T23:25:24.284Z,4.72
2023-04-15T23:27:50.867Z,4.68
2023-04-15T23:30:17.439Z,4.50
2023-04-15T23:32:44.047Z,5.20
2023-04-15T23:35:12.987Z,5.28
2023-04-15T23:37:39.523Z,4.53
2023-04-15T23:40:11.707Z,4.45
2023-04-15T23:42:38.251Z,4.75
2023-04-15T23:45:05.141Z,5.00
2023-04-15T23:47:31.765Z,4.53
2023-04-15T23:50:00.722Z,4.63
2023-04-15T23:52:27.693Z,5.88
2023-04-15T23:54:56.481Z,5.90
2023-04-15T23:57:23.080Z,5.22
2023-04-15T23:59:49.663Z,5.28
